sensor_id;sensor_type;location;lat;lon;timestamp;P1;durP1;ratioP1;P2;durP2;ratioP2
46365;SDS011;32073;49.166;8.076;2022-12-07T00:03:52;6.28;;;3.35;;
46365;SDS011;32073;49.166;8.076;2022-12-07T00:07:57;6.18;;;3.53;;
46365;SDS011;32073;49.166;8.076;2022-12-07T00:11:57;5.25;;;2.78;;
46365;SDS011;32073;49.166;8.076;2022-12-07T00:16:32;5.40;;;3.25;;
46365;SDS011;32073;49.166;8.076;2022-12-07T00:20:27;4.78;;;3.20;;
46365;SDS011;32073;49.166;8.076;2022-12-07T00:24:28;4.88;;;2.83;;
46365;SDS011;32073;49.166;8.076;2022-12-07T00:28:29;7.43;;;4.05;;
46365;SDS011;32073;49.166;8.076;2022-12-07T00:32:29;6.80;;;3.67;;
46365;SDS011;32073;49.166;8.076;2022-12-07T00:36:30;5.35;;;3.63;;
46365;SDS011;32073;49.166;8.076;2022-12-07T00:40:31;4.35;;;2.80;;
46365;SDS011;32073;49.166;8.076;2022-12-07T00:44:31;5.57;;;3.15;;
46365;SDS011;32073;49.166;8.076;2022-12-07T00:48:32;3.53;;;2.55;;
46365;SDS011;32073;49.166;8.076;2022-12-07T00:52:33;4.78;;;3.17;;
46365;SDS011;32073;49.166;8.076;2022-12-07T00:56:33;4.28;;;2.92;;
46365;SDS011;32073;49.166;8.076;2022-12-07T01:00:38;5.28;;;2.70;;
46365;SDS011;32073;49.166;8.076;2022-12-07T01:04:40;3.42;;;2.50;;
46365;SDS011;32073;49.166;8.076;2022-12-07T01:08:41;4.05;;;2.70;;
46365;SDS011;32073;49.166;8.076;2022-12-07T01:12:42;3.58;;;2.50;;
46365;SDS011;32073;49.166;8.076;2022-12-07T01:16:42;4.68;;;2.67;;
46365;SDS011;32073;49.166;8.076;2022-12-07T01:20:43;5.85;;;2.67;;
46365;SDS011;32073;49.166;8.076;2022-12-07T01:24:43;4.20;;;2.40;;
46365;SDS011;32073;49.166;8.076;2022-12-07T01:28:46;4.82;;;2.47;;
46365;SDS011;32073;49.166;8.076;2022-12-07T01:32:47;4.32;;;2.83;;
46365;SDS011;32073;49.166;8.076;2022-12-07T01:36:48;4.95;;;2.95;;
46365;SDS011;32073;49.166;8.076;2022-12-07T01:40:53;4.07;;;2.55;;
46365;SDS011;32073;49.166;8.076;2022-12-07T01:45:28;4.65;;;2.85;;
46365;SDS011;32073;49.166;8.076;2022-12-07T01:49:41;3.95;;;2.65;;
46365;SDS011;32073;49.166;8.076;2022-12-07T01:53:48;3.95;;;2.85;;
46365;SDS011;32073;49.166;8.076;2022-12-07T01:57:49;5.72;;;3.10;;
46365;SDS011;32073;49.166;8.076;2022-12-07T02:01:53;4.63;;;3.20;;
46365;SDS011;32073;49.166;8.076;2022-12-07T02:05:55;5.20;;;2.85;;
46365;SDS011;32073;49.166;8.076;2022-12-07T02:10:15;4.78;;;3.38;;
46365;SDS011;32073;49.166;8.076;2022-12-07T02:14:24;5.05;;;3.17;;
46365;SDS011;32073;49.166;8.076;2022-12-07T02:18:30;4.68;;;2.92;;
46365;SDS011;32073;49.166;8.076;2022-12-07T02:23:04;5.03;;;2.95;;
46365;SDS011;32073;49.166;8.076;2022-12-07T02:27:28;4.28;;;3.05;;
46365;SDS011;32073;49.166;8.076;2022-12-07T02:31:44;4.78;;;3.13;;
46365;SDS011;32073;49.166;8.076;2022-12-07T02:36:26;5.60;;;3.47;;
46365;SDS011;32073;49.166;8.076;2022-12-07T02:44:50;5.15;;;3.63;;
46365;SDS011;32073;49.166;8.076;2022-12-07T02:48:52;6.45;;;3.80;;
46365;SDS011;32073;49.166;8.076;2022-12-07T02:52:55;5.38;;;3.67;;
46365;SDS011;32073;49.166;8.076;2022-12-07T02:57:06;5.05;;;3.20;;
46365;SDS011;32073;49.166;8.076;2022-12-07T03:06:31;5.05;;;3.58;;
46365;SDS011;32073;49.166;8.076;2022-12-07T03:10:56;5.15;;;3.63;;
46365;SDS011;32073;49.166;8.076;2022-12-07T03:15:07;6.20;;;3.80;;
46365;SDS011;32073;49.166;8.076;2022-12-07T03:19:19;5.57;;;3.53;;
46365;SDS011;32073;49.166;8.076;2022-12-07T03:23:22;5.00;;;3.40;;
46365;SDS011;32073;49.166;8.076;2022-12-07T03:27:27;6.50;;;4.00;;
46365;SDS011;32073;49.166;8.076;2022-12-07T03:31:42;6.85;;;4.40;;
46365;SDS011;32073;49.166;8.076;2022-12-07T03:35:52;5.50;;;3.40;;
46365;SDS011;32073;49.166;8.076;2022-12-07T03:40:16;5.60;;;3.70;;
46365;SDS011;32073;49.166;8.076;2022-12-07T03:44:24;5.20;;;3.47;;
46365;SDS011;32073;49.166;8.076;2022-12-07T03:52:40;6.10;;;3.70;;
46365;SDS011;32073;49.166;8.076;2022-12-07T03:56:46;8.05;;;3.67;;
46365;SDS011;32073;49.166;8.076;2022-12-07T04:00:49;5.88;;;3.72;;
46365;SDS011;32073;49.166;8.076;2022-12-07T04:04:51;5.32;;;3.70;;
46365;SDS011;32073;49.166;8.076;2022-12-07T04:08:52;6.15;;;3.95;;
46365;SDS011;32073;49.166;8.076;2022-12-07T04:12:52;6.35;;;3.90;;
46365;SDS011;32073;49.166;8.076;2022-12-07T04:16:54;5.07;;;3.67;;
46365;SDS011;32073;49.166;8.076;2022-12-07T04:20:57;6.25;;;3.50;;
46365;SDS011;32073;49.166;8.076;2022-12-07T04:24:58;6.32;;;3.47;;
46365;SDS011;32073;49.166;8.076;2022-12-07T04:28:58;7.13;;;3.90;;
46365;SDS011;32073;49.166;8.076;2022-12-07T04:32:59;5.20;;;3.00;;
46365;SDS011;32073;49.166;8.076;2022-12-07T04:37:00;6.55;;;3.88;;
46365;SDS011;32073;49.166;8.076;2022-12-07T04:41:04;5.35;;;3.20;;
46365;SDS011;32073;49.166;8.076;2022-12-07T04:45:07;4.57;;;3.05;;
46365;SDS011;32073;49.166;8.076;2022-12-07T04:49:08;5.03;;;3.05;;
46365;SDS011;32073;49.166;8.076;2022-12-07T04:53:10;6.22;;;3.70;;
46365;SDS011;32073;49.166;8.076;2022-12-07T04:57:11;5.88;;;3.50;;
46365;SDS011;32073;49.166;8.076;2022-12-07T05:01:12;5.18;;;3.30;;
46365;SDS011;32073;49.166;8.076;2022-12-07T05:05:13;5.15;;;3.03;;
46365;SDS011;32073;49.166;8.076;2022-12-07T05:09:15;6.20;;;3.25;;
46365;SDS011;32073;49.166;8.076;2022-12-07T05:13:16;6.68;;;3.53;;
46365;SDS011;32073;49.166;8.076;2022-12-07T05:17:16;5.95;;;3.75;;
46365;SDS011;32073;49.166;8.076;2022-12-07T05:21:17;5.43;;;3.33;;
46365;SDS011;32073;49.166;8.076;2022-12-07T05:25:18;5.90;;;3.33;;
46365;SDS011;32073;49.166;8.076;2022-12-07T05:29:18;5.22;;;3.20;;
46365;SDS011;32073;49.166;8.076;2022-12-07T05:33:19;5.90;;;3.60;;
46365;SDS011;32073;49.166;8.076;2022-12-07T05:37:20;6.70;;;3.58;;
46365;SDS011;32073;49.166;8.076;2022-12-07T05:41:20;5.78;;;3.50;;
46365;SDS011;32073;49.166;8.076;2022-12-07T05:45:40;5.72;;;3.83;;
46365;SDS011;32073;49.166;8.076;2022-12-07T05:49:40;6.28;;;3.15;;
46365;SDS011;32073;49.166;8.076;2022-12-07T05:53:42;8.18;;;4.05;;
46365;SDS011;32073;49.166;8.076;2022-12-07T05:57:42;7.82;;;3.97;;
46365;SDS011;32073;49.166;8.076;2022-12-07T06:02:07;7.03;;;3.70;;
46365;SDS011;32073;49.166;8.076;2022-12-07T06:06:11;5.75;;;3.10;;
46365;SDS011;32073;49.166;8.076;2022-12-07T06:10:11;8.18;;;4.10;;
46365;SDS011;32073;49.166;8.076;2022-12-07T06:14:12;5.97;;;3.47;;
46365;SDS011;32073;49.166;8.076;2022-12-07T06:18:13;8.32;;;4.13;;
46365;SDS011;32073;49.166;8.076;2022-12-07T06:22:13;6.60;;;4.20;;
46365;SDS011;32073;49.166;8.076;2022-12-07T06:26:16;6.68;;;4.00;;
46365;SDS011;32073;49.166;8.076;2022-12-07T06:30:16;8.13;;;4.20;;
46365;SDS011;32073;49.166;8.076;2022-12-07T06:34:18;8.18;;;4.22;;
46365;SDS011;32073;49.166;8.076;2022-12-07T06:38:22;9.38;;;4.60;;
46365;SDS011;32073;49.166;8.076;2022-12-07T06:42:23;6.85;;;4.60;;
46365;SDS011;32073;49.166;8.076;2022-12-07T06:46:24;6.55;;;4.25;;
46365;SDS011;32073;49.166;8.076;2022-12-07T06:50:25;8.25;;;4.20;;
46365;SDS011;32073;49.166;8.076;2022-12-07T06:54:26;5.75;;;4.28;;
46365;SDS011;32073;49.166;8.076;2022-12-07T06:58:27;9.80;;;5.13;;
46365;SDS011;32073;49.166;8.076;2022-12-07T07:02:28;8.60;;;4.05;;
46365;SDS011;32073;49.166;8.076;2022-12-07T07:06:28;6.57;;;3.97;;
46365;SDS011;32073;49.166;8.076;2022-12-07T07:10:29;7.22;;;3.80;;
46365;SDS011;32073;49.166;8.076;2022-12-07T07:14:29;8.77;;;4.32;;
46365;SDS011;32073;49.166;8.076;2022-12-07T07:18:30;7.65;;;4.18;;
46365;SDS011;32073;49.166;8.076;2022-12-07T07:22:31;6.85;;;3.85;;
46365;SDS011;32073;49.166;8.076;2022-12-07T07:26:31;7.55;;;4.43;;
46365;SDS011;32073;49.166;8.076;2022-12-07T07:30:32;7.97;;;3.58;;
46365;SDS011;32073;49.166;8.076;2022-12-07T07:34:33;10.73;;;4.28;;
46365;SDS011;32073;49.166;8.076;2022-12-07T07:38:34;6.95;;;4.22;;
46365;SDS011;32073;49.166;8.076;2022-12-07T07:42:35;10.57;;;4.35;;
46365;SDS011;32073;49.166;8.076;2022-12-07T07:46:36;8.48;;;4.32;;
46365;SDS011;32073;49.166;8.076;2022-12-07T07:50:36;10.50;;;4.15;;
46365;SDS011;32073;49.166;8.076;2022-12-07T07:54:37;7.82;;;4.40;;
46365;SDS011;32073;49.166;8.076;2022-12-07T07:58:37;6.55;;;4.05;;
46365;SDS011;32073;49.166;8.076;2022-12-07T08:02:39;10.77;;;5.93;;
46365;SDS011;32073;49.166;8.076;2022-12-07T08:06:41;8.45;;;5.22;;
46365;SDS011;32073;49.166;8.076;2022-12-07T08:10:42;6.82;;;3.88;;
46365;SDS011;32073;49.166;8.076;2022-12-07T08:14:43;7.47;;;4.65;;
46365;SDS011;32073;49.166;8.076;2022-12-07T08:18:43;10.88;;;4.70;;
46365;SDS011;32073;49.166;8.076;2022-12-07T08:22:44;9.27;;;4.70;;
46365;SDS011;32073;49.166;8.076;2022-12-07T08:26:44;9.85;;;4.65;;
46365;SDS011;32073;49.166;8.076;2022-12-07T08:30:45;8.30;;;4.57;;
46365;SDS011;32073;49.166;8.076;2022-12-07T08:34:46;8.23;;;4.72;;
46365;SDS011;32073;49.166;8.076;2022-12-07T08:38:46;9.32;;;5.40;;
46365;SDS011;32073;49.166;8.076;2022-12-07T08:42:50;7.35;;;4.28;;
46365;SDS011;32073;49.166;8.076;2022-12-07T08:46:53;11.65;;;5.00;;
46365;SDS011;32073;49.166;8.076;2022-12-07T08:50:59;8.98;;;4.82;;
46365;SDS011;32073;49.166;8.076;2022-12-07T08:55:02;8.40;;;5.28;;
46365;SDS011;32073;49.166;8.076;2022-12-07T08:59:04;8.40;;;5.10;;
46365;SDS011;32073;49.166;8.076;2022-12-07T09:03:06;9.55;;;5.72;;
46365;SDS011;32073;49.166;8.076;2022-12-07T09:07:07;9.43;;;6.25;;
46365;SDS011;32073;49.166;8.076;2022-12-07T09:11:08;8.63;;;5.32;;
46365;SDS011;32073;49.166;8.076;2022-12-07T09:15:09;9.30;;;5.70;;
46365;SDS011;32073;49.166;8.076;2022-12-07T09:19:10;8.55;;;4.93;;
46365;SDS011;32073;49.166;8.076;2022-12-07T09:23:10;8.73;;;5.28;;
46365;SDS011;32073;49.166;8.076;2022-12-07T09:27:11;10.43;;;5.60;;
46365;SDS011;32073;49.166;8.076;2022-12-07T09:31:12;10.05;;;6.00;;
46365;SDS011;32073;49.166;8.076;2022-12-07T09:35:13;9.48;;;5.22;;
46365;SDS011;32073;49.166;8.076;2022-12-07T09:39:13;7.40;;;4.93;;
46365;SDS011;32073;49.166;8.076;2022-12-07T09:43:21;10.50;;;5.78;;
46365;SDS011;32073;49.166;8.076;2022-12-07T09:47:25;9.43;;;5.68;;
46365;SDS011;32073;49.166;8.076;2022-12-07T09:51:27;10.90;;;5.88;;
46365;SDS011;32073;49.166;8.076;2022-12-07T09:55:28;9.60;;;5.57;;
46365;SDS011;32073;49.166;8.076;2022-12-07T09:59:30;9.50;;;4.90;;
46365;SDS011;32073;49.166;8.076;2022-12-07T10:03:31;9.02;;;5.78;;
46365;SDS011;32073;49.166;8.076;2022-12-07T10:07:32;9.48;;;6.10;;
46365;SDS011;32073;49.166;8.076;2022-12-07T10:11:33;9.68;;;5.10;;
46365;SDS011;32073;49.166;8.076;2022-12-07T10:15:47;9.18;;;5.55;;
46365;SDS011;32073;49.166;8.076;2022-12-07T10:24:24;9.07;;;5.63;;
46365;SDS011;32073;49.166;8.076;2022-12-07T10:28:27;8.68;;;5.75;;
46365;SDS011;32073;49.166;8.076;2022-12-07T10:32:36;12.25;;;5.65;;
46365;SDS011;32073;49.166;8.076;2022-12-07T10:36:37;9.73;;;5.88;;
46365;SDS011;32073;49.166;8.076;2022-12-07T10:40:39;10.55;;;5.65;;
46365;SDS011;32073;49.166;8.076;2022-12-07T10:44:39;8.95;;;5.53;;
46365;SDS011;32073;49.166;8.076;2022-12-07T10:49:08;10.20;;;5.38;;
46365;SDS011;32073;49.166;8.076;2022-12-07T11:07:14;9.93;;;5.57;;
46365;SDS011;32073;49.166;8.076;2022-12-07T11:11:38;8.70;;;4.80;;
46365;SDS011;32073;49.166;8.076;2022-12-07T11:16:25;8.50;;;5.07;;
46365;SDS011;32073;49.166;8.076;2022-12-07T11:25:26;8.48;;;4.47;;
46365;SDS011;32073;49.166;8.076;2022-12-07T11:29:44;8.77;;;4.90;;
46365;SDS011;32073;49.166;8.076;2022-12-07T11:33:53;7.22;;;4.28;;
46365;SDS011;32073;49.166;8.076;2022-12-07T11:42:22;7.10;;;4.15;;
46365;SDS011;32073;49.166;8.076;2022-12-07T11:46:35;9.75;;;5.20;;
46365;SDS011;32073;49.166;8.076;2022-12-07T11:50:50;9.30;;;4.70;;
46365;SDS011;32073;49.166;8.076;2022-12-07T11:54:54;7.63;;;4.32;;
46365;SDS011;32073;49.166;8.076;2022-12-07T11:59:06;7.50;;;4.40;;
46365;SDS011;32073;49.166;8.076;2022-12-07T12:03:30;7.80;;;4.00;;
46365;SDS011;32073;49.166;8.076;2022-12-07T12:07:37;9.27;;;5.13;;
46365;SDS011;32073;49.166;8.076;2022-12-07T12:16:21;10.60;;;4.57;;
46365;SDS011;32073;49.166;8.076;2022-12-07T12:21:02;7.07;;;4.10;;
46365;SDS011;32073;49.166;8.076;2022-12-07T12:25:19;6.85;;;4.30;;
46365;SDS011;32073;49.166;8.076;2022-12-07T12:29:39;8.32;;;3.92;;
46365;SDS011;32073;49.166;8.076;2022-12-07T12:33:47;6.97;;;3.95;;
46365;SDS011;32073;49.166;8.076;2022-12-07T12:37:52;6.15;;;4.18;;
46365;SDS011;32073;49.166;8.076;2022-12-07T12:41:54;5.55;;;3.53;;
46365;SDS011;32073;49.166;8.076;2022-12-07T12:50:50;5.95;;;3.13;;
46365;SDS011;32073;49.166;8.076;2022-12-07T13:03:55;7.63;;;4.13;;
46365;SDS011;32073;49.166;8.076;2022-12-07T13:12:03;6.55;;;3.92;;
46365;SDS011;32073;49.166;8.076;2022-12-07T13:20:39;6.03;;;3.50;;
46365;SDS011;32073;49.166;8.076;2022-12-07T13:24:46;7.20;;;3.63;;
46365;SDS011;32073;49.166;8.076;2022-12-07T13:29:11;8.02;;;4.00;;
46365;SDS011;32073;49.166;8.076;2022-12-07T13:33:13;5.47;;;3.53;;
46365;SDS011;32073;49.166;8.076;2022-12-07T13:37:21;5.13;;;2.97;;
46365;SDS011;32073;49.166;8.076;2022-12-07T13:41:29;4.38;;;2.83;;
46365;SDS011;32073;49.166;8.076;2022-12-07T13:45:31;4.35;;;3.00;;
46365;SDS011;32073;49.166;8.076;2022-12-07T13:49:50;4.77;;;3.03;;
46365;SDS011;32073;49.166;8.076;2022-12-07T13:53:54;4.32;;;2.90;;
46365;SDS011;32073;49.166;8.076;2022-12-07T13:58:00;31.33;;;18.13;;
46365;SDS011;32073;49.166;8.076;2022-12-07T14:02:01;11.27;;;6.30;;
46365;SDS011;32073;49.166;8.076;2022-12-07T14:06:15;6.70;;;4.78;;
46365;SDS011;32073;49.166;8.076;2022-12-07T14:14:36;23.17;;;10.80;;
46365;SDS011;32073;49.166;8.076;2022-12-07T14:18:38;47.22;;;17.52;;
46365;SDS011;32073;49.166;8.076;2022-12-07T14:22:40;141.07;;;65.72;;
46365;SDS011;32073;49.166;8.076;2022-12-07T14:26:41;112.97;;;45.90;;
46365;SDS011;32073;49.166;8.076;2022-12-07T14:30:44;56.53;;;25.92;;
46365;SDS011;32073;49.166;8.076;2022-12-07T14:38:56;36.53;;;18.55;;
46365;SDS011;32073;49.166;8.076;2022-12-07T14:43:02;73.70;;;38.50;;
46365;SDS011;32073;49.166;8.076;2022-12-07T14:47:08;26.40;;;14.88;;
46365;SDS011;32073;49.166;8.076;2022-12-07T14:51:10;13.73;;;7.75;;
46365;SDS011;32073;49.166;8.076;2022-12-07T14:55:13;9.20;;;5.22;;
46365;SDS011;32073;49.166;8.076;2022-12-07T14:59:24;21.23;;;13.75;;
46365;SDS011;32073;49.166;8.076;2022-12-07T15:03:25;10.32;;;7.30;;
46365;SDS011;32073;49.166;8.076;2022-12-07T15:07:26;7.53;;;5.13;;
46365;SDS011;32073;49.166;8.076;2022-12-07T15:11:27;7.07;;;4.75;;
46365;SDS011;32073;49.166;8.076;2022-12-07T15:15:28;7.13;;;4.35;;
46365;SDS011;32073;49.166;8.076;2022-12-07T15:19:29;7.75;;;4.68;;
46365;SDS011;32073;49.166;8.076;2022-12-07T15:23:29;6.65;;;4.68;;
46365;SDS011;32073;49.166;8.076;2022-12-07T15:27:31;7.25;;;3.83;;
46365;SDS011;32073;49.166;8.076;2022-12-07T15:31:32;6.85;;;4.25;;
46365;SDS011;32073;49.166;8.076;2022-12-07T15:35:33;7.93;;;4.13;;
46365;SDS011;32073;49.166;8.076;2022-12-07T15:39:41;6.07;;;4.05;;
46365;SDS011;32073;49.166;8.076;2022-12-07T15:43:42;6.10;;;3.58;;
46365;SDS011;32073;49.166;8.076;2022-12-07T15:48:12;4.97;;;3.92;;
46365;SDS011;32073;49.166;8.076;2022-12-07T15:52:13;6.82;;;4.10;;
46365;SDS011;32073;49.166;8.076;2022-12-07T15:56:14;7.70;;;4.00;;
46365;SDS011;32073;49.166;8.076;2022-12-07T16:00:14;91.28;;;42.28;;
46365;SDS011;32073;49.166;8.076;2022-12-07T16:04:16;22.73;;;13.45;;
46365;SDS011;32073;49.166;8.076;2022-12-07T16:08:16;12.40;;;7.35;;
46365;SDS011;32073;49.166;8.076;2022-12-07T16:12:17;7.70;;;5.22;;
46365;SDS011;32073;49.166;8.076;2022-12-07T16:16:18;11.98;;;6.43;;
46365;SDS011;32073;49.166;8.076;2022-12-07T16:20:21;8.52;;;5.00;;
46365;SDS011;32073;49.166;8.076;2022-12-07T16:24:22;9.30;;;4.85;;
46365;SDS011;32073;49.166;8.076;2022-12-07T16:28:23;6.80;;;4.35;;
46365;SDS011;32073;49.166;8.076;2022-12-07T16:32:23;12.45;;;6.85;;
46365;SDS011;32073;49.166;8.076;2022-12-07T16:36:24;16.58;;;7.57;;
46365;SDS011;32073;49.166;8.076;2022-12-07T16:40:27;12.82;;;6.82;;
46365;SDS011;32073;49.166;8.076;2022-12-07T16:44:27;12.35;;;6.80;;
46365;SDS011;32073;49.166;8.076;2022-12-07T16:48:28;8.75;;;5.80;;
46365;SDS011;32073;49.166;8.076;2022-12-07T16:52:29;8.55;;;4.93;;
46365;SDS011;32073;49.166;8.076;2022-12-07T16:56:29;8.90;;;5.35;;
46365;SDS011;32073;49.166;8.076;2022-12-07T17:00:30;7.32;;;4.75;;
46365;SDS011;32073;49.166;8.076;2022-12-07T17:04:32;9.45;;;5.82;;
46365;SDS011;32073;49.166;8.076;2022-12-07T17:08:33;9.20;;;5.03;;
46365;SDS011;32073;49.166;8.076;2022-12-07T17:12:34;10.68;;;7.03;;
46365;SDS011;32073;49.166;8.076;2022-12-07T17:16:35;26.25;;;12.68;;
46365;SDS011;32073;49.166;8.076;2022-12-07T17:20:36;59.38;;;28.77;;
46365;SDS011;32073;49.166;8.076;2022-12-07T17:24:37;20.00;;;12.90;;
46365;SDS011;32073;49.166;8.076;2022-12-07T17:28:38;11.85;;;8.07;;
46365;SDS011;32073;49.166;8.076;2022-12-07T17:32:40;28.42;;;13.63;;
46365;SDS011;32073;49.166;8.076;2022-12-07T17:36:40;17.33;;;9.13;;
46365;SDS011;32073;49.166;8.076;2022-12-07T17:40:41;20.77;;;10.65;;
46365;SDS011;32073;49.166;8.076;2022-12-07T17:44:42;17.77;;;9.77;;
46365;SDS011;32073;49.166;8.076;2022-12-07T17:48:42;38.10;;;15.80;;
46365;SDS011;32073;49.166;8.076;2022-12-07T17:52:43;46.75;;;19.70;;
46365;SDS011;32073;49.166;8.076;2022-12-07T18:01:07;16.40;;;8.23;;
46365;SDS011;32073;49.166;8.076;2022-12-07T18:05:09;18.10;;;7.55;;
46365;SDS011;32073;49.166;8.076;2022-12-07T18:09:10;17.90;;;9.27;;
46365;SDS011;32073;49.166;8.076;2022-12-07T18:13:11;18.55;;;9.95;;
46365;SDS011;32073;49.166;8.076;2022-12-07T18:17:30;13.25;;;7.97;;
46365;SDS011;32073;49.166;8.076;2022-12-07T18:21:31;15.93;;;7.78;;
46365;SDS011;32073;49.166;8.076;2022-12-07T18:25:32;16.58;;;8.98;;
46365;SDS011;32073;49.166;8.076;2022-12-07T18:29:33;18.73;;;10.02;;
46365;SDS011;32073;49.166;8.076;2022-12-07T18:33:34;16.65;;;8.73;;
46365;SDS011;32073;49.166;8.076;2022-12-07T18:37:36;22.13;;;9.65;;
46365;SDS011;32073;49.166;8.076;2022-12-07T18:41:37;12.27;;;7.13;;
46365;SDS011;32073;49.166;8.076;2022-12-07T18:45:39;17.48;;;7.15;;
46365;SDS011;32073;49.166;8.076;2022-12-07T18:49:42;15.07;;;6.75;;
46365;SDS011;32073;49.166;8.076;2022-12-07T18:53:43;17.63;;;7.85;;
46365;SDS011;32073;49.166;8.076;2022-12-07T18:57:44;22.58;;;10.02;;
46365;SDS011;32073;49.166;8.076;2022-12-07T19:01:52;39.85;;;15.35;;
46365;SDS011;32073;49.166;8.076;2022-12-07T19:05:53;59.25;;;20.35;;
46365;SDS011;32073;49.166;8.076;2022-12-07T19:09:56;47.80;;;16.70;;
46365;SDS011;32073;49.166;8.076;2022-12-07T19:13:57;48.78;;;18.63;;
46365;SDS011;32073;49.166;8.076;2022-12-07T19:17:57;106.28;;;33.10;;
46365;SDS011;32073;49.166;8.076;2022-12-07T19:21:58;74.55;;;26.60;;
46365;SDS011;32073;49.166;8.076;2022-12-07T19:25:59;44.35;;;17.35;;
46365;SDS011;32073;49.166;8.076;2022-12-07T19:30:00;24.25;;;10.32;;
46365;SDS011;32073;49.166;8.076;2022-12-07T19:34:01;21.33;;;9.05;;
46365;SDS011;32073;49.166;8.076;2022-12-07T19:38:06;28.88;;;10.63;;
46365;SDS011;32073;49.166;8.076;2022-12-07T19:42:07;14.68;;;6.40;;
46365;SDS011;32073;49.166;8.076;2022-12-07T19:46:08;29.75;;;11.25;;
46365;SDS011;32073;49.166;8.076;2022-12-07T19:50:09;12.90;;;6.97;;
46365;SDS011;32073;49.166;8.076;2022-12-07T19:54:11;10.55;;;5.85;;
46365;SDS011;32073;49.166;8.076;2022-12-07T19:58:13;8.60;;;5.80;;
46365;SDS011;32073;49.166;8.076;2022-12-07T20:02:14;7.65;;;4.78;;
46365;SDS011;32073;49.166;8.076;2022-12-07T20:06:17;8.40;;;4.53;;
46365;SDS011;32073;49.166;8.076;2022-12-07T20:10:19;7.28;;;4.20;;
46365;SDS011;32073;49.166;8.076;2022-12-07T20:14:20;7.15;;;4.03;;
46365;SDS011;32073;49.166;8.076;2022-12-07T20:18:21;8.68;;;4.65;;
46365;SDS011;32073;49.166;8.076;2022-12-07T20:22:22;7.60;;;4.80;;
46365;SDS011;32073;49.166;8.076;2022-12-07T20:26:22;7.05;;;4.40;;
46365;SDS011;32073;49.166;8.076;2022-12-07T20:30:23;8.27;;;4.45;;
46365;SDS011;32073;49.166;8.076;2022-12-07T20:34:24;8.13;;;4.97;;
46365;SDS011;32073;49.166;8.076;2022-12-07T20:38:25;7.30;;;4.32;;
46365;SDS011;32073;49.166;8.076;2022-12-07T20:42:27;10.52;;;6.72;;
46365;SDS011;32073;49.166;8.076;2022-12-07T20:46:37;12.73;;;7.00;;
46365;SDS011;32073;49.166;8.076;2022-12-07T20:50:38;9.38;;;5.47;;
46365;SDS011;32073;49.166;8.076;2022-12-07T20:54:38;10.32;;;5.00;;
46365;SDS011;32073;49.166;8.076;2022-12-07T20:58:39;8.55;;;5.10;;
46365;SDS011;32073;49.166;8.076;2022-12-07T21:02:40;13.05;;;7.88;;
46365;SDS011;32073;49.166;8.076;2022-12-07T21:06:41;14.95;;;11.05;;
46365;SDS011;32073;49.166;8.076;2022-12-07T21:10:41;23.35;;;16.00;;
46365;SDS011;32073;49.166;8.076;2022-12-07T21:14:42;12.10;;;8.07;;
46365;SDS011;32073;49.166;8.076;2022-12-07T21:18:44;10.40;;;7.00;;
46365;SDS011;32073;49.166;8.076;2022-12-07T21:22:46;9.20;;;4.93;;
46365;SDS011;32073;49.166;8.076;2022-12-07T21:26:47;10.32;;;6.53;;
46365;SDS011;32073;49.166;8.076;2022-12-07T21:30:48;8.85;;;4.57;;
46365;SDS011;32073;49.166;8.076;2022-12-07T21:34:49;7.60;;;4.68;;
46365;SDS011;32073;49.166;8.076;2022-12-07T21:38:50;6.63;;;4.28;;
46365;SDS011;32073;49.166;8.076;2022-12-07T21:42:54;8.13;;;4.93;;
46365;SDS011;32073;49.166;8.076;2022-12-07T21:46:54;9.27;;;4.70;;
46365;SDS011;32073;49.166;8.076;2022-12-07T21:50:56;7.63;;;4.40;;
46365;SDS011;32073;49.166;8.076;2022-12-07T21:55:10;6.25;;;3.85;;
46365;SDS011;32073;49.166;8.076;2022-12-07T21:59:14;6.70;;;4.32;;
46365;SDS011;32073;49.166;8.076;2022-12-07T22:03:22;7.32;;;3.67;;
46365;SDS011;32073;49.166;8.076;2022-12-07T22:07:22;6.47;;;3.85;;
46365;SDS011;32073;49.166;8.076;2022-12-07T22:11:23;8.38;;;4.43;;
46365;SDS011;32073;49.166;8.076;2022-12-07T22:15:24;8.75;;;4.70;;
46365;SDS011;32073;49.166;8.076;2022-12-07T22:19:27;9.13;;;4.65;;
46365;SDS011;32073;49.166;8.076;2022-12-07T22:23:27;7.35;;;4.32;;
46365;SDS011;32073;49.166;8.076;2022-12-07T22:27:31;6.80;;;3.97;;
46365;SDS011;32073;49.166;8.076;2022-12-07T22:31:32;7.88;;;4.13;;
46365;SDS011;32073;49.166;8.076;2022-12-07T22:35:33;36.83;;;16.48;;
46365;SDS011;32073;49.166;8.076;2022-12-07T22:39:33;24.13;;;11.23;;
46365;SDS011;32073;49.166;8.076;2022-12-07T22:43:34;30.27;;;13.98;;
46365;SDS011;32073;49.166;8.076;2022-12-07T22:47:35;27.50;;;15.30;;
46365;SDS011;32073;49.166;8.076;2022-12-07T22:51:39;15.38;;;9.23;;
46365;SDS011;32073;49.166;8.076;2022-12-07T22:55:40;10.10;;;6.38;;
46365;SDS011;32073;49.166;8.076;2022-12-07T22:59:41;12.45;;;7.20;;
46365;SDS011;32073;49.166;8.076;2022-12-07T23:03:42;24.88;;;11.20;;
46365;SDS011;32073;49.166;8.076;2022-12-07T23:07:43;26.17;;;12.57;;
46365;SDS011;32073;49.166;8.076;2022-12-07T23:11:44;15.15;;;7.93;;
46365;SDS011;32073;49.166;8.076;2022-12-07T23:16:07;14.60;;;7.47;;
46365;SDS011;32073;49.166;8.076;2022-12-07T23:20:12;19.20;;;9.23;;
46365;SDS011;32073;49.166;8.076;2022-12-07T23:24:13;10.05;;;5.32;;
46365;SDS011;32073;49.166;8.076;2022-12-07T23:28:15;19.08;;;9.38;;
46365;SDS011;32073;49.166;8.076;2022-12-07T23:32:15;12.57;;;7.13;;
46365;SDS011;32073;49.166;8.076;2022-12-07T23:36:17;12.60;;;6.75;;
46365;SDS011;32073;49.166;8.076;2022-12-07T23:40:21;26.38;;;12.55;;
46365;SDS011;32073;49.166;8.076;2022-12-07T23:44:22;12.82;;;6.97;;
46365;SDS011;32073;49.166;8.076;2022-12-07T23:48:23;11.57;;;6.28;;
46365;SDS011;32073;49.166;8.076;2022-12-07T23:52:26;13.55;;;7.03;;
46365;SDS011;32073;49.166;8.076;2022-12-07T23:56:27;8.00;;;4.60;;
